Time;durP1;ratioP1;P1;durP2;ratioP2;P2;SDS_P1;SDS_P2;PMS_P1;PMS_P2;Temp;Humidity;BMP_temperature;BMP_pressure;BME280_temperature;BME280_humidity;BME280_pressure;Samples;Min_cycle;Max_cycle;Signal;HPM_P1;HPM_P2
2024/04/10 00:00:13;;;;;;;9.33;1.57;;;;;;;9.22;100.00;101592.00;5418801;26;20290;-71
2024/04/10 00:02:42;;;;;;;8.70;1.67;;;;;;;9.32;100.00;101601.69;5401729;26;20478;-73
2024/04/10 00:05:09;;;;;;;10.07;1.40;;;;;;;9.24;100.00;101554.34;5421997;26;20255;-71
2024/04/10 00:07:34;;;;;;;8.40;1.50;;;;;;;8.68;100.00;101471.41;5387708;26;20536;-72
2024/04/10 00:10:00;;;;;;;7.00;1.30;;;;;;;9.23;100.00;101569.59;5401665;26;20472;-71
2024/04/10 00:12:26;;;;;;;16.50;1.83;;;;;;;9.22;100.00;101565.22;5402971;26;20268;-73
2024/04/10 00:14:52;;;;;;;16.47;2.57;;;;;;;9.28;100.00;101564.53;5436184;26;20235;-73
2024/04/10 00:17:17;;;;;;;15.10;1.97;;;;;;;9.39;100.00;101570.53;5432218;26;20937;-71
2024/04/10 00:19:49;;;;;;;9.17;1.60;;;;;;;9.18;100.00;101528.28;5400439;26;20446;-72
2024/04/10 00:22:15;;;;;;;7.90;1.40;;;;;;;9.46;100.00;101580.38;5427130;26;20814;-71
2024/04/10 00:24:42;;;;;;;10.27;1.90;;;;;;;9.43;100.00;101579.88;5435668;26;20461;-71
2024/04/10 00:27:08;;;;;;;13.90;1.80;;;;;;;9.32;100.00;101553.50;5429413;26;20239;-73
2024/04/10 00:29:33;;;;;;;11.60;1.70;;;;;;;9.40;100.00;101554.31;5431376;26;20529;-71
2024/04/10 00:31:59;;;;;;;9.20;1.53;;;;;;;9.65;100.00;101575.63;5397918;26;20239;-71
2024/04/10 00:34:24;;;;;;;8.40;1.70;;;;;;;9.50;100.00;101583.56;5402769;26;20723;-73
2024/04/10 00:36:51;;;;;;;12.50;1.90;;;;;;;9.25;100.00;101556.84;5403830;26;20294;-71
2024/04/10 00:39:16;;;;;;;10.70;1.90;;;;;;;8.75;100.00;101476.91;5392982;26;20778;-72
2024/04/10 00:41:41;;;;;;;9.87;1.60;;;;;;;9.41;100.00;101564.00;5431080;26;20524;-71
2024/04/10 00:44:08;;;;;;;11.60;1.50;;;;;;;9.13;100.00;101557.41;5388500;26;20247;-71
2024/04/10 00:46:36;;;;;;;12.27;1.53;;;;;;;8.89;100.00;101520.84;5421734;26;20326;-71
2024/04/10 00:49:01;;;;;;;8.30;1.70;;;;;;;9.32;100.00;101591.00;5426460;26;20453;-71
2024/04/10 00:51:28;;;;;;;15.10;2.20;;;;;;;9.19;100.00;101556.72;5430839;26;20532;-72
2024/04/10 00:53:54;;;;;;;12.00;2.07;;;;;;;9.46;100.00;101614.38;5431835;26;20291;-71
2024/04/10 00:56:20;;;;;;;9.53;1.60;;;;;;;9.38;100.00;101633.13;5431940;26;20586;-71
2024/04/10 00:58:47;;;;;;;8.87;1.63;;;;;;;9.15;100.00;101585.66;5418316;26;20472;-70
2024/04/10 01:01:13;;;;;;;8.13;1.53;;;;;;;9.38;100.00;101644.69;5435730;26;20391;-70
2024/04/10 01:03:39;;;;;;;10.70;1.93;;;;;;;9.37;100.00;101634.94;5419597;26;21160;-70
2024/04/10 01:06:07;;;;;;;11.67;1.80;;;;;;;9.43;100.00;101660.22;5425271;26;20481;-71
2024/04/10 01:08:34;;;;;;;10.80;1.50;;;;;;;8.77;100.00;101555.97;5428154;26;20948;-71
2024/04/10 01:11:01;;;;;;;13.23;1.73;;;;;;;9.53;100.00;101682.28;5426582;26;20465;-70
2024/04/10 01:13:28;;;;;;;9.70;1.30;;;;;;;9.37;100.00;101648.34;5430647;26;20482;-71
2024/04/10 01:15:53;;;;;;;8.20;1.57;;;;;;;9.39;100.00;101657.03;5432785;26;20468;-71
2024/04/10 01:18:19;;;;;;;12.27;1.20;;;;;;;9.63;100.00;101691.00;5429628;26;20520;-70
2024/04/10 01:20:46;;;;;;;9.30;1.20;;;;;;;9.66;100.00;101665.66;5424891;26;20282;-71
2024/04/10 01:23:11;;;;;;;11.93;1.60;;;;;;;9.71;100.00;101692.78;5398231;26;20598;-69
2024/04/10 01:25:36;;;;;;;9.13;1.93;;;;;;;9.24;100.00;101624.78;5429367;26;20526;-70
2024/04/10 01:28:02;;;;;;;10.80;1.80;;;;;;;9.12;100.00;101623.47;5385023;26;20348;-71
2024/04/10 01:30:27;;;;;;;12.50;1.47;;;;;;;9.20;100.00;101677.00;5427555;26;20834;-70
2024/04/10 01:32:53;;;;;;;8.77;1.60;;;;;;;9.44;100.00;101699.38;5397492;26;20653;-71
2024/04/10 01:35:18;;;;;;;17.13;1.60;;;;;;;9.26;100.00;101670.16;5423325;26;20741;-69
2024/04/10 01:37:44;;;;;;;9.70;1.40;;;;;;;9.51;100.00;101714.59;5438436;26;20283;-70
2024/04/10 01:40:10;;;;;;;12.30;1.83;;;;;;;9.55;100.00;101715.09;5427376;26;20765;-70
2024/04/10 01:42:36;;;;;;;13.40;2.33;;;;;;;9.58;100.00;101706.72;5393577;26;20627;-70
2024/04/10 01:45:03;;;;;;;12.20;2.00;;;;;;;9.34;100.00;101655.88;5415685;26;20465;-70
2024/04/10 01:47:28;;;;;;;7.47;1.30;;;;;;;9.19;100.00;101642.38;5425685;26;20248;-69
2024/04/10 01:49:54;;;;;;;10.20;1.33;;;;;;;9.71;100.00;101714.22;5396587;26;21062;-71
2024/04/10 01:52:19;;;;;;;12.90;1.50;;;;;;;9.62;100.00;101688.47;5425022;26;20352;-69
2024/04/10 01:54:49;;;;;;;8.53;1.57;;;;;;;9.39;100.00;101661.56;5432277;26;20620;-70
2024/04/10 01:57:15;;;;;;;7.90;1.50;;;;;;;9.62;100.00;101693.81;5428317;26;20271;-70
2024/04/10 01:59:41;;;;;;;12.03;1.63;;;;;;;8.91;100.00;101583.03;5422256;26;20484;-71
2024/04/10 02:02:06;;;;;;;9.20;1.30;;;;;;;9.65;100.00;101698.84;5427358;26;20290;-71
2024/04/10 02:04:32;;;;;;;13.83;1.47;;;;;;;9.48;100.00;101681.97;5439400;26;21122;-70
2024/04/10 02:06:57;;;;;;;8.40;1.20;;;;;;;9.90;100.00;101735.28;5437070;26;20248;-70
2024/04/10 02:09:23;;;;;;;7.90;1.20;;;;;;;9.75;100.00;101704.84;5438773;26;20240;-70
2024/04/10 02:11:49;;;;;;;9.80;1.27;;;;;;;9.69;100.00;101698.34;5403576;26;20611;-69
2024/04/10 02:14:14;;;;;;;11.97;1.60;;;;;;;10.00;100.00;101747.63;5400519;26;20265;-70
2024/04/10 02:16:40;;;;;;;7.10;1.23;;;;;;;9.80;100.00;101752.53;5424200;26;20477;-70
2024/04/10 02:19:06;;;;;;;8.93;1.00;;;;;;;9.64;100.00;101730.16;5432046;26;20249;-69
2024/04/10 02:21:31;;;;;;;11.37;1.80;;;;;;;9.88;100.00;101766.75;5426805;26;21068;-72
2024/04/10 02:23:57;;;;;;;7.30;1.50;;;;;;;9.69;100.00;101748.38;5420430;26;20286;-71
2024/04/10 02:26:22;;;;;;;6.97;1.00;;;;;;;9.71;100.00;101738.31;5427601;26;20242;-71
2024/04/10 02:28:48;;;;;;;10.20;1.30;;;;;;;9.71;100.00;101760.59;5434155;26;20299;-72
2024/04/10 02:31:13;;;;;;;8.80;1.80;;;;;;;9.87;100.00;101786.53;5443248;26;20295;-70
2024/04/10 02:33:39;;;;;;;10.20;1.40;;;;;;;9.65;100.00;101758.59;5407087;26;20728;-69
2024/04/10 02:36:06;;;;;;;8.00;1.40;;;;;;;9.67;100.00;101763.81;5436819;26;20236;-70
2024/04/10 02:38:33;;;;;;;8.27;1.50;;;;;;;9.80;100.00;101798.91;5403688;26;20252;-70
2024/04/10 02:40:58;;;;;;;8.40;1.33;;;;;;;9.60;100.00;101763.63;5438850;26;20477;-70
2024/04/10 02:43:24;;;;;;;10.47;1.90;;;;;;;9.18;100.00;101694.25;5438496;26;20958;-71
2024/04/10 02:46:05;;;;;;;12.73;2.37;;;;;;;9.86;100.00;101782.16;5434183;26;20580;-70
2024/04/10 02:48:31;;;;;;;11.90;2.07;;;;;;;9.86;100.00;101766.09;5437898;26;20240;-70
2024/04/10 02:50:57;;;;;;;10.50;1.83;;;;;;;9.74;100.00;101762.94;5398243;26;20518;-71
2024/04/10 02:53:23;;;;;;;12.33;2.00;;;;;;;9.99;100.00;101791.53;5439021;26;20473;-71
2024/04/10 02:55:50;;;;;;;11.83;1.80;;;;;;;9.91;100.00;101808.47;5423949;26;20245;-73
2024/04/10 02:58:17;;;;;;;11.70;1.70;;;;;;;9.93;100.00;101801.91;5404575;26;20247;-70
2024/04/10 03:00:46;;;;;;;10.80;1.93;;;;;;;10.01;100.00;101813.63;5403316;26;21130;-70
2024/04/10 03:03:12;;;;;;;9.63;1.80;;;;;;;9.46;100.00;101767.00;5391179;26;21350;-70
2024/04/10 03:05:42;;;;;;;12.37;2.20;;;;;;;9.71;100.00;101821.38;5432703;26;20536;-70
2024/04/10 03:08:09;;;;;;;9.40;1.30;;;;;;;9.77;100.00;101819.88;5430150;26;20652;-70
2024/04/10 03:10:35;;;;;;;10.90;1.70;;;;;;;9.71;100.00;101870.44;5431843;26;20472;-70
2024/04/10 03:13:00;;;;;;;10.93;2.17;;;;;;;9.73;100.00;101876.47;5429061;26;20546;-70
2024/04/10 03:15:25;;;;;;;8.87;1.97;;;;;;;9.32;100.00;101819.38;5429842;26;20247;-70
2024/04/10 03:17:53;;;;;;;12.00;1.80;;;;;;;9.55;100.00;101907.94;5430047;26;20291;-69
2024/04/10 03:20:22;;;;;;;13.80;2.10;;;;;;;9.40;100.00;101931.00;5396526;26;20845;-70
2024/04/10 03:22:47;;;;;;;12.17;1.93;;;;;;;9.43;100.00;101903.91;5423667;26;20469;-70
2024/04/10 03:25:14;;;;;;;17.03;2.37;;;;;;;9.67;100.00;101935.25;5404804;26;20525;-69
2024/04/10 03:27:43;;;;;;;14.20;3.10;;;;;;;9.72;100.00;101936.44;5415418;26;20248;-69
2024/04/10 03:30:09;;;;;;;11.70;2.03;;;;;;;9.60;100.00;101926.19;5438049;26;21008;-70
2024/04/10 03:32:37;;;;;;;10.97;2.17;;;;;;;9.41;100.00;101919.31;5445246;26;20940;-70
2024/04/10 03:35:03;;;;;;;10.07;1.53;;;;;;;9.73;100.00;101951.50;5443079;26;20554;-71
2024/04/10 03:37:29;;;;;;;9.10;1.60;;;;;;;9.40;100.00;101898.88;5438439;26;20493;-70
2024/04/10 03:39:55;;;;;;;8.90;1.70;;;;;;;9.67;100.00;101933.41;5446036;26;20855;-70
2024/04/10 03:42:20;;;;;;;10.83;2.10;;;;;;;9.70;100.00;101943.78;5406806;26;20370;-70
2024/04/10 03:44:45;;;;;;;11.23;2.03;;;;;;;9.56;100.00;101920.31;5412863;26;20820;-70
2024/04/10 03:47:11;;;;;;;12.40;1.93;;;;;;;9.06;100.00;101822.22;5403411;26;20871;-72
2024/04/10 03:49:37;;;;;;;12.63;2.70;;;;;;;9.69;100.00;101923.38;5432948;26;20335;-70
2024/04/10 03:52:03;;;;;;;14.13;2.83;;;;;;;9.83;100.00;101953.16;5434424;26;20243;-69
2024/04/10 03:54:28;;;;;;;11.83;2.37;;;;;;;9.81;100.00;101957.88;5431129;26;21055;-73
2024/04/10 03:56:53;;;;;;;11.03;2.03;;;;;;;9.93;100.00;101980.66;5430595;26;21299;-70
2024/04/10 03:59:20;;;;;;;11.07;2.17;;;;;;;9.40;100.00;101955.09;5425767;26;20714;-69
2024/04/10 04:01:45;;;;;;;11.30;2.50;;;;;;;9.68;100.00;101991.31;5436216;26;20678;-69
2024/04/10 04:04:11;;;;;;;12.27;1.97;;;;;;;9.43;100.00;101970.84;5431090;26;20535;-70
2024/04/10 04:06:37;;;;;;;14.70;2.60;;;;;;;9.52;100.00;101996.66;5432722;26;20714;-70
2024/04/10 04:09:02;;;;;;;15.37;2.40;;;;;;;9.37;100.00;101982.22;5432257;26;20236;-71
2024/04/10 04:11:28;;;;;;;10.60;2.50;;;;;;;9.44;100.00;101991.28;5393867;26;20240;-71
2024/04/10 04:13:54;;;;;;;10.63;2.50;;;;;;;9.49;100.00;102003.19;5433195;26;20250;-70
2024/04/10 04:16:19;;;;;;;10.40;1.70;;;;;;;9.55;100.00;101999.00;5432055;26;20267;-70
2024/04/10 04:18:45;;;;;;;12.47;2.40;;;;;;;9.05;100.00;101916.84;5420217;26;20294;-70
2024/04/10 04:21:10;;;;;;;9.40;2.10;;;;;;;9.37;100.00;102000.94;5428591;26;20481;-71
2024/04/10 04:23:36;;;;;;;11.80;2.03;;;;;;;8.63;100.00;101898.16;5433889;26;20275;-71
2024/04/10 04:26:02;;;;;;;10.67;1.80;;;;;;;9.28;100.00;102000.91;5433311;26;20599;-71
2024/04/10 04:28:28;;;;;;;12.27;2.77;;;;;;;9.38;100.00;102013.34;5402862;26;20262;-70
2024/04/10 04:30:54;;;;;;;9.10;1.43;;;;;;;9.64;100.00;102045.41;5434512;26;20483;-71
2024/04/10 04:33:20;;;;;;;10.40;2.33;;;;;;;9.40;100.00;102022.06;5400416;26;20760;-71
2024/04/10 04:35:46;;;;;;;14.87;2.67;;;;;;;9.55;100.00;102049.91;5395370;26;20252;-70
2024/04/10 04:38:11;;;;;;;9.63;2.20;;;;;;;8.82;100.00;101928.16;5431736;26;20475;-71
2024/04/10 04:40:37;;;;;;;13.13;1.97;;;;;;;9.28;100.00;102019.66;5397346;26;20236;-72
2024/04/10 04:43:08;;;;;;;11.50;2.20;;;;;;;9.00;100.00;101984.25;5399279;26;20266;-70
2024/04/10 04:45:37;;;;;;;10.13;2.13;;;;;;;9.58;100.00;102088.94;5424045;26;20777;-71
2024/04/10 04:48:04;;;;;;;12.63;2.30;;;;;;;9.30;100.00;102061.53;5397144;26;20467;-70
2024/04/10 04:50:30;;;;;;;16.00;3.10;;;;;;;9.26;100.00;102059.16;5405041;26;20489;-72
2024/04/10 04:52:55;;;;;;;12.83;2.13;;;;;;;9.11;100.00;102025.94;5394645;26;23463;-73
2024/04/10 04:55:23;;;;;;;11.50;2.13;;;;;;;9.24;100.00;102071.03;5400634;26;20658;-71
2024/04/10 04:57:48;;;;;;;12.90;2.27;;;;;;;9.44;100.00;102118.00;5436661;26;20245;-72
2024/04/10 05:00:14;;;;;;;12.13;1.73;;;;;;;8.87;100.00;102041.88;5434571;26;20521;-71
2024/04/10 05:02:43;;;;;;;14.17;2.50;;;;;;;9.11;100.00;102102.72;5419291;26;20865;-71
2024/04/10 05:05:15;;;;;;;14.07;2.30;;;;;;;9.49;100.00;102141.63;5433777;26;20799;-70
2024/04/10 05:07:41;;;;;;;15.27;2.93;;;;;;;9.40;100.00;102145.22;5432767;26;20474;-71
2024/04/10 05:10:08;;;;;;;11.47;2.10;;;;;;;9.27;100.00;102102.84;5428297;26;20587;-70
2024/04/10 05:12:34;;;;;;;13.83;2.90;;;;;;;9.43;100.00;102151.13;5430969;26;20537;-70
2024/04/10 05:15:00;;;;;;;15.50;2.77;;;;;;;9.57;100.00;102164.91;5435996;26;20556;-71
2024/04/10 05:17:26;;;;;;;12.53;2.10;;;;;;;9.36;100.00;102133.16;5403504;26;20529;-71
2024/04/10 05:19:51;;;;;;;13.63;2.70;;;;;;;9.51;100.00;102158.34;5433512;26;20421;-70
2024/04/10 05:22:17;;;;;;;12.20;2.57;;;;;;;9.23;100.00;102094.28;5439898;26;20239;-70
2024/04/10 05:24:43;;;;;;;14.00;2.80;;;;;;;9.59;100.00;102179.81;5432937;26;20629;-70
2024/04/10 05:27:20;;;;;;;10.63;2.43;;;;;;;9.48;100.00;102164.03;5432423;26;20559;-70
2024/04/10 05:29:46;;;;;;;13.10;2.90;;;;;;;9.47;100.00;102186.47;5427642;26;20260;-71
2024/04/10 05:32:11;;;;;;;14.20;2.73;;;;;;;9.44;100.00;102181.44;5393315;26;21235;-70
2024/04/10 05:34:37;;;;;;;20.27;3.80;;;;;;;9.25;100.00;102180.63;5396735;26;20262;-70
2024/04/10 05:37:02;;;;;;;10.60;2.50;;;;;;;9.30;100.00;102177.50;5404276;26;20288;-70
2024/04/10 05:39:28;;;;;;;14.33;2.73;;;;;;;9.55;100.00;102210.63;5399262;26;20244;-70
2024/04/10 05:41:54;;;;;;;12.37;2.30;;;;;;;9.33;100.00;102177.16;5436639;26;20973;-72
2024/04/10 05:44:20;;;;;;;13.13;2.80;;;;;;;8.97;100.00;102109.53;5426918;26;20549;-70
2024/04/10 05:46:46;;;;;;;13.40;2.80;;;;;;;9.53;100.00;102209.09;5429677;26;20512;-70
2024/04/10 05:49:11;;;;;;;12.63;2.50;;;;;;;9.68;100.00;102232.44;5396445;26;20738;-70
2024/04/10 05:51:37;;;;;;;14.10;2.90;;;;;;;9.54;100.00;102202.72;5411468;26;20236;-71
2024/04/10 05:54:03;;;;;;;14.97;2.50;;;;;;;9.11;100.00;102141.03;5430291;26;20672;-71
2024/04/10 05:56:29;;;;;;;17.27;2.83;;;;;;;9.50;100.00;102189.66;5418837;26;20600;-71
2024/04/10 05:58:54;;;;;;;14.80;3.03;;;;;;;9.75;100.00;102238.03;5435430;26;20546;-72
2024/04/10 06:01:20;;;;;;;17.23;3.00;;;;;;;9.56;100.00;102216.81;5395309;26;20244;-70
2024/04/10 06:03:46;;;;;;;13.47;2.80;;;;;;;9.99;100.00;102261.44;5404333;26;20525;-71
2024/04/10 06:06:12;;;;;;;12.87;2.27;;;;;;;9.85;100.00;102267.38;5426608;26;20241;-70
2024/04/10 06:08:39;;;;;;;15.97;2.73;;;;;;;9.40;100.00;102217.53;5435950;26;20232;-72
2024/04/10 06:11:05;;;;;;;13.50;2.10;;;;;;;9.95;100.00;102263.59;5434022;26;20465;-70
2024/04/10 06:13:32;;;;;;;12.40;3.00;;;;;;;9.93;100.00;102262.06;5398258;26;20534;-72
2024/04/10 06:16:04;;;;;;;14.63;2.90;;;;;;;9.89;100.00;102261.56;5433026;26;20583;-71
2024/04/10 06:18:30;;;;;;;12.37;2.40;;;;;;;9.95;100.00;102262.72;5394729;26;20826;-70
2024/04/10 06:20:59;;;;;;;12.73;2.50;;;;;;;9.81;100.00;102263.34;5386951;26;20477;-70
2024/04/10 06:23:27;;;;;;;10.90;2.30;;;;;;;9.96;100.00;102284.03;5435073;26;20250;-70
2024/04/10 06:25:53;;;;;;;9.30;2.20;;;;;;;9.96;100.00;102291.25;5431569;26;20461;-70
2024/04/10 06:28:18;;;;;;;12.80;2.73;;;;;;;9.88;100.00;102273.25;5436960;26;21294;-72
2024/04/10 06:30:43;;;;;;;10.53;2.20;;;;;;;9.89;100.00;102274.97;5431843;26;20343;-71
2024/04/10 06:33:11;;;;;;;10.00;2.20;;;;;;;9.94;100.00;102271.78;5426763;26;20272;-72
2024/04/10 06:35:36;;;;;;;11.70;2.10;;;;;;;9.76;100.00;102241.53;5415485;26;20252;-70
2024/04/10 06:38:02;;;;;;;14.37;2.63;;;;;;;9.94;100.00;102287.88;5411253;26;20531;-71
2024/04/10 06:40:27;;;;;;;12.20;2.70;;;;;;;9.96;100.00;102305.47;5433453;26;20239;-70
2024/04/10 06:42:52;;;;;;;15.33;3.00;;;;;;;9.90;100.00;102299.91;5401405;26;20243;-71
2024/04/10 06:45:18;;;;;;;13.30;3.60;;;;;;;10.05;100.00;102297.47;5392965;26;20247;-70
2024/04/10 06:47:43;;;;;;;11.47;2.17;;;;;;;9.58;100.00;102231.75;5432099;26;20245;-70
2024/04/10 06:50:12;;;;;;;10.13;2.80;;;;;;;9.85;100.00;102286.16;5433273;26;20331;-77
2024/04/10 06:52:38;;;;;;;15.80;3.03;;;;;;;10.04;100.00;102310.06;5407622;26;20243;-71
2024/04/10 06:55:05;;;;;;;17.47;3.17;;;;;;;10.04;100.00;102328.81;5431094;26;20881;-70
2024/04/10 06:57:31;;;;;;;14.87;2.40;;;;;;;10.00;100.00;102302.47;5430501;26;22499;-70
2024/04/10 06:59:58;;;;;;;12.83;2.87;;;;;;;10.07;100.00;102338.38;5399569;26;20551;-72
2024/04/10 07:02:24;;;;;;;14.77;3.37;;;;;;;10.08;100.00;102337.38;5438101;26;20236;-70
2024/04/10 07:04:50;;;;;;;16.67;3.50;;;;;;;10.00;100.00;102343.53;5408309;26;20539;-70
2024/04/10 07:07:15;;;;;;;10.50;2.77;;;;;;;9.92;100.00;102343.47;5409399;26;21053;-70
2024/04/10 07:09:41;;;;;;;17.10;2.80;;;;;;;9.85;100.00;102339.75;5434898;26;20239;-70
2024/04/10 07:12:07;;;;;;;13.57;3.57;;;;;;;9.60;100.00;102277.09;5401037;26;20260;-71
2024/04/10 07:14:34;;;;;;;14.17;3.17;;;;;;;9.99;100.00;102349.88;5400693;26;20773;-71
2024/04/10 07:17:00;;;;;;;15.57;2.70;;;;;;;9.90;100.00;102335.59;5430669;26;20256;-70
2024/04/10 07:19:26;;;;;;;14.60;3.30;;;;;;;9.70;100.00;102301.97;5435190;26;20890;-71
2024/04/10 07:21:52;;;;;;;15.13;3.67;;;;;;;9.80;100.00;102291.13;5409025;26;20482;-71
2024/04/10 07:24:18;;;;;;;14.10;3.57;;;;;;;10.21;100.00;102377.16;5430780;26;21042;-70
2024/04/10 07:26:43;;;;;;;17.60;3.73;;;;;;;10.19;100.00;102377.31;5435727;26;20533;-73
2024/04/10 07:29:09;;;;;;;12.57;3.47;;;;;;;9.98;100.00;102340.19;5397080;26;20699;-72
2024/04/10 07:31:36;;;;;;;23.43;4.00;;;;;;;10.22;100.00;102358.25;5429018;26;20285;-70
2024/04/10 07:34:03;;;;;;;23.23;4.13;;;;;;;10.51;100.00;102403.50;5408473;26;20834;-70
2024/04/10 07:36:31;;;;;;;16.57;3.47;;;;;;;9.86;100.00;102299.38;5424302;26;21357;-70
2024/04/10 07:38:57;;;;;;;11.77;3.23;;;;;;;10.48;100.00;102381.53;5399120;26;20473;-70
2024/04/10 07:41:24;;;;;;;11.90;3.10;;;;;;;10.23;100.00;102329.56;5412248;26;20520;-70
2024/04/10 07:43:50;;;;;;;14.47;3.20;;;;;;;10.22;100.00;102338.63;5401857;26;20485;-70
2024/04/10 07:46:17;;;;;;;14.23;3.20;;;;;;;10.72;100.00;102397.72;5402801;26;20489;-69
2024/04/10 07:48:48;;;;;;;17.93;3.80;;;;;;;10.68;100.00;102406.28;5444653;26;20464;-71
2024/04/10 07:51:14;;;;;;;14.90;4.23;;;;;;;10.60;100.00;102412.44;5410244;26;20902;-70
2024/04/10 07:53:41;;;;;;;21.13;4.40;;;;;;;10.65;100.00;102402.06;5422111;26;20834;-70
2024/04/10 07:56:08;;;;;;;23.63;4.63;;;;;;;10.49;100.00;102402.81;5323739;21;20578;-76
2024/04/10 07:58:35;;;;;;;12.17;3.70;;;;;;;10.63;100.00;102412.13;5330588;26;20948;-76
2024/04/10 08:01:01;;;;;;;22.27;4.03;;;;;;;10.77;100.00;102413.38;5321054;26;20563;-78
2024/04/10 08:03:29;;;;;;;15.90;4.50;;;;;;;10.69;100.00;102418.69;5378691;21;20547;-66
2024/04/10 08:05:56;;;;;;;17.97;4.23;;;;;;;10.86;100.00;102423.97;5346076;26;20480;-66
2024/04/10 08:08:22;;;;;;;17.23;4.50;;;;;;;10.99;100.00;102434.25;5331769;26;21113;-66
2024/04/10 08:10:54;;;;;;;15.47;4.30;;;;;;;10.84;100.00;102422.44;5343425;26;20465;-66
2024/04/10 08:13:19;;;;;;;15.63;4.57;;;;;;;10.88;100.00;102434.56;5335710;26;20850;-66
2024/04/10 08:15:55;;;;;;;19.50;4.30;;;;;;;11.14;100.00;102442.53;5341133;26;20515;-67
2024/04/10 08:18:20;;;;;;;16.93;3.97;;;;;;;10.80;100.00;102411.19;5347368;26;20332;-66
2024/04/10 08:20:46;;;;;;;14.83;4.00;;;;;;;10.90;100.00;102464.75;5335339;26;22924;-66
2024/04/10 08:23:11;;;;;;;22.50;4.40;;;;;;;10.22;100.00;102365.44;5337687;26;20250;-66
2024/04/10 08:25:38;;;;;;;14.87;4.10;;;;;;;10.79;100.00;102459.66;5350306;26;20869;-66
2024/04/10 08:28:04;;;;;;;20.53;3.73;;;;;;;10.42;100.00;102425.94;5339593;26;20606;-66
2024/04/10 08:30:29;;;;;;;14.80;3.77;;;;;;;10.76;100.00;102466.22;5335851;26;20531;-66
2024/04/10 08:32:56;;;;;;;19.80;4.20;;;;;;;10.95;100.00;102466.94;5331879;26;26157;-66
2024/04/10 08:35:21;;;;;;;14.47;3.90;;;;;;;10.58;100.00;102430.53;5339216;26;20985;-66
2024/04/10 08:37:50;;;;;;;15.77;3.40;;;;;;;10.83;100.00;102479.81;5343907;26;20497;-66
2024/04/10 08:40:16;;;;;;;12.60;3.83;;;;;;;10.94;100.00;102481.38;5343267;26;20247;-66
2024/04/10 08:42:43;;;;;;;14.57;3.47;;;;;;;10.92;100.00;102443.94;5340655;26;20567;-66
2024/04/10 08:45:09;;;;;;;16.10;4.20;;;;;;;11.11;100.00;102468.84;5339113;26;20529;-66
2024/04/10 08:47:35;;;;;;;13.13;3.57;;;;;;;10.91;100.00;102481.72;5339611;26;20472;-66
2024/04/10 08:50:02;;;;;;;17.57;3.93;;;;;;;11.11;100.00;102495.69;5342749;26;20538;-66
2024/04/10 08:52:31;;;;;;;16.53;3.30;;;;;;;11.07;100.00;102487.97;5334117;26;20235;-66
2024/04/10 08:54:56;;;;;;;12.90;4.00;;;;;;;11.26;100.00;102489.56;5335016;26;20481;-66
2024/04/10 08:57:22;;;;;;;14.30;3.70;;;;;;;11.12;100.00;102494.72;5337986;26;20493;-66
2024/04/10 08:59:47;;;;;;;17.40;3.73;;;;;;;11.14;100.00;102515.03;5343174;26;20247;-66
2024/04/10 09:02:12;;;;;;;11.07;2.67;;;;;;;11.00;100.00;102500.38;5330096;26;20389;-66
2024/04/10 09:04:47;;;;;;;20.03;3.40;;;;;;;11.14;100.00;102519.53;5340846;26;20288;-66
2024/04/10 09:07:17;;;;;;;10.90;3.30;;;;;;;11.08;100.00;102526.44;5331645;26;20285;-66
2024/04/10 09:09:42;;;;;;;12.10;2.90;;;;;;;10.43;100.00;102438.34;5337570;26;20517;-66
2024/04/10 09:12:08;;;;;;;12.13;3.37;;;;;;;11.28;100.00;102543.09;5339051;26;20589;-66
2024/04/10 09:14:33;;;;;;;9.63;3.40;;;;;;;11.09;100.00;102512.81;5345552;26;20235;-66
2024/04/10 09:17:03;;;;;;;10.83;2.73;;;;;;;11.32;100.00;102541.78;5337590;26;20352;-65
2024/04/10 09:19:31;;;;;;;13.23;2.90;;;;;;;11.29;100.00;102550.19;5339774;26;20306;-66
2024/04/10 09:21:58;;;;;;;16.23;3.13;;;;;;;11.31;100.00;102557.06;5333186;26;20470;-66
2024/04/10 09:24:30;;;;;;;12.63;3.17;;;;;;;11.24;100.00;102547.97;5339676;26;20519;-66
2024/04/10 09:26:57;;;;;;;10.90;3.37;;;;;;;11.33;100.00;102551.53;5339648;26;21021;-66
2024/04/10 09:29:28;;;;;;;10.40;2.53;;;;;;;10.92;100.00;102484.22;5343502;26;20522;-66
2024/04/10 09:31:58;;;;;;;14.47;2.97;;;;;;;11.21;100.00;102504.47;5339941;26;20481;-66
2024/04/10 09:34:24;;;;;;;14.53;2.40;;;;;;;11.51;100.00;102560.34;5339878;26;20520;-66
2024/04/10 09:36:50;;;;;;;12.73;2.40;;;;;;;11.76;100.00;102568.47;5336504;26;21088;-66
2024/04/10 09:39:22;;;;;;;9.50;2.90;;;;;;;11.89;100.00;102576.06;5337375;26;20866;-66
2024/04/10 09:41:53;;;;;;;10.60;2.50;;;;;;;11.57;100.00;102536.47;5340349;26;20480;-66
2024/04/10 09:44:23;;;;;;;9.03;2.73;;;;;;;12.04;100.00;102587.06;5336893;26;20925;-66
2024/04/10 09:46:56;;;;;;;12.23;2.57;;;;;;;12.03;100.00;102572.75;5339986;26;20487;-66
2024/04/10 09:49:26;;;;;;;11.47;2.57;;;;;;;12.38;100.00;102584.19;5338672;26;20470;-66
2024/04/10 09:51:56;;;;;;;10.93;2.90;;;;;;;12.28;100.00;102568.22;5341391;26;20605;-66
2024/04/10 09:54:24;;;;;;;10.70;2.73;;;;;;;12.06;100.00;102563.50;5333579;26;20473;-66
2024/04/10 09:56:51;;;;;;;10.50;2.53;;;;;;;12.01;100.00;102547.03;5340422;26;20519;-66
2024/04/10 09:59:19;;;;;;;11.40;2.00;;;;;;;11.92;100.00;102563.16;5337117;26;20485;-66
2024/04/10 10:01:45;;;;;;;8.67;2.10;;;;;;;11.88;100.00;102587.84;5346902;26;21644;-66
2024/04/10 10:04:11;;;;;;;9.27;2.93;;;;;;;12.05;100.00;102610.25;5343130;26;20463;-66
2024/04/10 10:06:36;;;;;;;11.80;2.90;;;;;;;12.18;100.00;102586.41;5367203;26;21181;-65
2024/04/10 10:09:02;;;;;;;10.50;2.23;;;;;;;12.33;100.00;102598.16;5345752;26;20617;-66
2024/04/10 10:11:31;;;;;;;7.43;1.80;;;;;;;12.07;100.00;102568.72;5347410;26;20243;-66
2024/04/10 10:14:03;;;;;;;13.30;2.60;;;;;;;12.25;100.00;102608.91;5356439;26;20599;-65
2024/04/10 10:16:33;;;;;;;11.07;2.47;;;;;;;12.19;100.00;102590.75;5341580;26;21232;-68
2024/04/10 10:19:00;;;;;;;13.10;3.10;;;;;;;11.96;100.00;102567.19;5342424;26;20481;-68
2024/04/10 10:21:27;;;;;;;14.83;4.10;;;;;;;12.11;100.00;102620.34;5341330;26;20526;-69
2024/04/10 10:23:56;;;;;;;11.93;3.27;;;;;;;12.27;100.00;102617.69;5339544;26;21356;-68
2024/04/10 10:26:22;;;;;;;14.17;3.87;;;;;;;12.28;100.00;102624.72;5339128;26;20533;-69
2024/04/10 10:28:48;;;;;;;14.37;3.30;;;;;;;11.82;100.00;102580.41;5341153;26;22916;-69
2024/04/10 10:31:21;;;;;;;14.27;2.47;;;;;;;12.27;100.00;102611.47;5336547;26;20461;-69
2024/04/10 10:33:48;;;;;;;10.17;2.80;;;;;;;12.27;100.00;102588.09;5338979;26;20243;-68
2024/04/10 10:36:14;;;;;;;9.40;2.60;;;;;;;12.73;100.00;102634.19;5334375;26;20626;-69
2024/04/10 10:38:40;;;;;;;11.00;2.27;;;;;;;12.56;100.00;102636.03;5336963;26;20908;-69
2024/04/10 10:41:11;;;;;;;9.77;2.40;;;;;;;12.27;100.00;102589.94;5335151;26;21022;-69
2024/04/10 10:43:40;;;;;;;10.87;2.77;;;;;;;12.61;100.00;102620.22;5336303;26;20922;-68
2024/04/10 10:46:05;;;;;;;13.80;2.93;;;;;;;12.30;100.00;102570.75;5344565;26;20486;-69
2024/04/10 10:48:31;;;;;;;11.57;2.73;;;;;;;12.54;100.00;102638.03;5342020;26;20586;-69
2024/04/10 10:50:58;;;;;;;9.73;2.37;;;;;;;12.35;100.00;102609.63;5335458;26;20239;-69
2024/04/10 10:53:26;;;;;;;8.60;2.30;;;;;;;12.50;100.00;102619.69;5341915;26;20477;-68
2024/04/10 10:55:53;;;;;;;10.73;2.50;;;;;;;12.71;100.00;102581.50;5341210;26;20547;-68
2024/04/10 10:58:18;;;;;;;12.00;2.83;;;;;;;12.41;100.00;102586.53;5345291;26;20463;-68
2024/04/10 11:00:44;;;;;;;12.27;2.87;;;;;;;12.73;100.00;102561.47;5358407;26;20572;-69
2024/04/10 11:03:11;;;;;;;10.70;2.90;;;;;;;12.54;100.00;102615.66;5336483;26;20251;-69
2024/04/10 11:05:36;;;;;;;16.53;3.10;;;;;;;12.28;100.00;102602.38;5337389;26;20287;-70
2024/04/10 11:08:02;;;;;;;10.33;2.60;;;;;;;12.18;100.00;102618.69;5331501;26;21003;-69
2024/04/10 11:10:28;;;;;;;14.70;2.57;;;;;;;12.14;100.00;102611.94;5336945;26;20333;-69
2024/04/10 11:12:58;;;;;;;14.27;3.20;;;;;;;12.11;100.00;102575.44;5342159;26;21040;-69